Time;durP1;ratioP1;P1;durP2;ratioP2;P2;SDS_P1;SDS_P2;PMS_P1;PMS_P2;Temp;Humidity;BMP_temperature;BMP_pressure;BME280_temperature;BME280_humidity;BME280_pressure;Samples;Min_cycle;Max_cycle;Signal;HPM_P1;HPM_P2
2022/09/22 00:02:00;;;;;;;23.45;20.65;;;;;;;10.27;76.81;102243.16;3601421;39;20047;-63
2022/09/22 00:04:26;;;;;;;23.10;20.23;;;;;;;10.25;75.89;102245.03;3609922;39;20243;-63
2022/09/22 00:06:52;;;;;;;25.98;21.83;;;;;;;10.18;76.80;102239.00;3609168;39;20446;-63
2022/09/22 00:09:20;;;;;;;24.67;22.23;;;;;;;9.98;77.17;102202.13;3610806;39;20047;-63
2022/09/22 00:11:50;;;;;;;24.52;21.83;;;;;;;10.16;77.24;102238.19;3608716;39;20378;-63
2022/09/22 00:14:24;;;;;;;23.92;21.20;;;;;;;10.15;77.29;102232.88;3611080;39;20412;-63
2022/09/22 00:17:02;;;;;;;25.95;23.15;;;;;;;10.11;77.24;102228.53;3609721;39;20128;-63
2022/09/22 00:19:33;;;;;;;25.75;23.15;;;;;;;10.09;76.85;102233.09;3605571;39;20108;-63
2022/09/22 00:21:59;;;;;;;25.42;22.83;;;;;;;10.05;77.72;102223.38;3611226;39;20055;-63
2022/09/22 00:24:26;;;;;;;25.80;23.10;;;;;;;9.74;77.60;102185.13;3608163;39;20385;-64
2022/09/22 00:26:56;;;;;;;27.67;23.88;;;;;;;9.98;77.75;102225.41;3608218;39;20381;-63
2022/09/22 00:29:25;;;;;;;25.92;23.33;;;;;;;9.96;77.81;102230.88;3604133;39;20051;-63
2022/09/22 00:31:51;;;;;;;27.83;24.88;;;;;;;9.95;78.42;102236.28;3607843;39;20058;-63
2022/09/22 00:34:22;;;;;;;27.63;24.52;;;;;;;9.88;77.72;102226.69;3608074;39;20047;-63
2022/09/22 00:36:49;;;;;;;27.88;25.10;;;;;;;9.87;77.48;102225.81;3609081;39;20124;-64
2022/09/22 00:39:17;;;;;;;27.08;24.38;;;;;;;9.79;77.57;102225.22;3603498;39;20055;-64
2022/09/22 00:41:48;;;;;;;27.52;24.52;;;;;;;9.75;77.61;102221.75;3608020;39;20333;-64
2022/09/22 00:44:30;;;;;;;26.98;24.35;;;;;;;9.76;77.46;102220.81;3609353;39;20051;-63
2022/09/22 00:46:58;;;;;;;26.80;24.15;;;;;;;9.75;78.13;102227.13;3610148;39;20051;-63
2022/09/22 00:49:43;;;;;;;26.17;23.38;;;;;;;9.72;78.02;102227.25;3609339;39;20051;-65
2022/09/22 00:52:13;;;;;;;26.10;22.92;;;;;;;9.57;77.61;102194.69;3607617;39;20104;-64
2022/09/22 00:54:39;;;;;;;26.05;22.83;;;;;;;9.62;77.28;102209.72;3609324;39;20411;-63
2022/09/22 00:57:17;;;;;;;24.45;22.05;;;;;;;9.70;77.58;102217.47;3609556;39;20054;-63
2022/09/22 00:59:46;;;;;;;24.27;21.83;;;;;;;9.69;77.11;102224.66;3607311;39;20056;-63
2022/09/22 01:02:12;;;;;;;24.48;22.10;;;;;;;9.68;77.28;102222.06;3609001;39;20120;-64
2022/09/22 01:04:41;;;;;;;25.20;22.55;;;;;;;9.63;77.58;102203.41;3604717;39;20063;-64
2022/09/22 01:07:08;;;;;;;25.08;22.45;;;;;;;9.65;77.02;102209.59;3610209;39;20055;-63
2022/09/22 01:09:34;;;;;;;24.77;22.33;;;;;;;9.61;77.10;102205.28;3611797;39;20104;-63
2022/09/22 01:12:03;;;;;;;29.30;22.90;;;;;;;9.60;77.66;102208.88;3613156;39;20046;-63
2022/09/22 01:15:12;;;;;;;25.08;22.58;;;;;;;9.57;77.40;102208.13;3607512;39;20095;-63
2022/09/22 01:17:43;;;;;;;24.42;21.92;;;;;;;9.58;76.75;102205.41;3607435;39;20066;-63
2022/09/22 01:20:27;;;;;;;25.38;21.65;;;;;;;9.58;77.61;102193.75;3605707;39;20374;-64
2022/09/22 01:23:52;;;;;;;25.52;23.00;;;;;;;9.54;76.89;102199.22;3609122;39;20059;-64
2022/09/22 01:26:47;;;;;;;25.42;22.83;;;;;;;9.51;77.78;102188.63;3609286;39;20054;-64
2022/09/22 01:29:52;;;;;;;25.65;22.88;;;;;;;9.50;77.18;102189.53;3608673;39;20039;-63
2022/09/22 01:32:37;;;;;;;23.67;21.27;;;;;;;9.49;76.73;102195.84;3605085;39;20182;-63
2022/09/22 01:35:26;;;;;;;27.55;22.42;;;;;;;9.45;77.51;102183.47;3613011;39;20273;-64
2022/09/22 01:38:01;;;;;;;25.42;22.50;;;;;;;9.45;77.21;102190.63;3606322;39;20046;-63
2022/09/22 01:40:55;;;;;;;26.13;23.45;;;;;;;9.38;77.54;102187.28;3609612;39;20060;-63
2022/09/22 01:43:49;;;;;;;32.47;24.80;;;;;;;9.37;77.56;102190.91;3609190;39;20139;-63
2022/09/22 01:46:29;;;;;;;28.02;24.83;;;;;;;9.32;77.92;102182.13;3611315;39;20059;-64
2022/09/22 01:49:05;;;;;;;30.23;27.00;;;;;;;9.31;78.41;102180.38;3607662;39;20059;-64
2022/09/22 01:51:43;;;;;;;28.13;25.13;;;;;;;9.29;77.93;102176.88;3608503;39;20066;-64
2022/09/22 01:54:33;;;;;;;26.85;23.73;;;;;;;9.13;77.84;102138.97;3606965;39;20043;-63
2022/09/22 01:57:18;;;;;;;26.90;24.20;;;;;;;9.30;77.89;102175.97;3606929;39;20058;-64
2022/09/22 01:59:57;;;;;;;26.77;24.17;;;;;;;9.29;77.35;102163.47;3609250;39;20055;-64
2022/09/22 02:02:47;;;;;;;25.23;22.70;;;;;;;9.33;77.18;102170.50;3610009;39;20039;-65
2022/09/22 02:05:32;;;;;;;27.40;24.45;;;;;;;9.33;76.59;102162.44;3610802;39;20129;-64
2022/09/22 02:08:08;;;;;;;26.45;23.85;;;;;;;9.34;76.94;102164.19;3611185;39;20054;-64
2022/09/22 02:10:43;;;;;;;27.08;24.13;;;;;;;9.34;76.50;102169.56;3608938;39;20039;-64
2022/09/22 02:13:08;;;;;;;25.85;23.42;;;;;;;9.34;76.85;102166.88;3610433;39;20462;-64
2022/09/22 02:18:28;;;;;;;26.55;22.75;;;;;;;9.32;76.94;102157.97;3613350;39;20363;-63
2022/09/22 02:20:54;;;;;;;27.42;24.58;;;;;;;9.30;77.11;102157.19;3611222;39;20126;-64
2022/09/22 02:23:20;;;;;;;27.88;25.15;;;;;;;8.99;77.13;102115.31;3614789;39;20043;-64
2022/09/22 02:25:48;;;;;;;28.77;25.77;;;;;;;9.17;77.78;102150.50;3613415;39;20058;-63
2022/09/22 02:28:22;;;;;;;30.23;25.63;;;;;;;9.17;78.70;102142.44;3609030;39;20381;-63
2022/09/22 02:30:53;;;;;;;29.50;26.60;;;;;;;9.14;77.88;102143.44;3610583;39;20050;-63
2022/09/22 02:33:25;;;;;;;29.65;26.55;;;;;;;9.11;78.94;102150.72;3610811;39;20061;-63
2022/09/22 02:36:20;;;;;;;30.85;27.67;;;;;;;9.06;79.02;102142.81;3613498;39;20340;-63
2022/09/22 02:39:22;;;;;;;31.27;28.10;;;;;;;9.03;79.36;102140.22;3610854;39;20078;-63
2022/09/22 02:42:06;;;;;;;29.75;26.85;;;;;;;9.02;79.55;102144.72;3607086;39;20047;-64
2022/09/22 02:44:46;;;;;;;31.05;27.83;;;;;;;9.02;79.12;102135.78;3614273;39;20047;-63
2022/09/22 02:47:41;;;;;;;29.45;26.45;;;;;;;8.98;79.19;102135.03;3612042;39;20091;-63
2022/09/22 02:50:12;;;;;;;31.13;27.80;;;;;;;8.95;78.75;102128.91;3607998;39;20308;-64
2022/09/22 02:52:39;;;;;;;31.27;28.02;;;;;;;8.95;78.83;102127.09;3610223;39;20051;-63
2022/09/22 02:55:08;;;;;;;30.83;27.73;;;;;;;8.91;79.27;102130.81;3613648;39;20087;-63
2022/09/22 02:57:34;;;;;;;32.00;28.70;;;;;;;8.79;78.89;102115.13;3614091;39;20453;-63
2022/09/22 03:00:01;;;;;;;32.83;28.10;;;;;;;8.90;79.05;102123.69;3612214;39;20051;-63
2022/09/22 03:02:26;;;;;;;30.65;27.42;;;;;;;8.88;79.17;102119.28;3607069;39;20052;-63
2022/09/22 03:04:52;;;;;;;30.45;27.45;;;;;;;8.88;78.29;102119.28;3613519;39;20376;-63
2022/09/22 03:07:18;;;;;;;29.58;26.58;;;;;;;8.86;78.11;102127.41;3614079;39;20285;-63
2022/09/22 03:09:44;;;;;;;29.98;26.70;;;;;;;8.83;78.96;102119.47;3610236;39;20270;-63
2022/09/22 03:12:09;;;;;;;29.92;26.85;;;;;;;8.87;78.36;102120.22;3613205;39;20054;-63
2022/09/22 03:14:35;;;;;;;30.15;26.83;;;;;;;8.83;78.35;102114.09;3615745;39;20050;-63
2022/09/22 03:17:00;;;;;;;29.27;26.20;;;;;;;8.72;77.74;102102.84;3612866;39;20368;-64
2022/09/22 03:19:26;;;;;;;29.05;26.05;;;;;;;8.78;78.42;102110.69;3615158;39;20054;-63
2022/09/22 03:21:52;;;;;;;29.73;26.52;;;;;;;8.75;78.50;102119.72;3614017;39;20057;-62
2022/09/22 03:24:17;;;;;;;29.27;26.35;;;;;;;8.74;78.61;102119.75;3612100;39;20055;-64
2022/09/22 03:26:43;;;;;;;28.75;25.80;;;;;;;8.72;78.37;102121.59;3611395;39;20345;-63
2022/09/22 03:29:09;;;;;;;29.70;26.50;;;;;;;8.69;78.07;102110.97;3613452;39;20058;-62
2022/09/22 03:31:34;;;;;;;28.27;25.23;;;;;;;8.66;78.11;102105.72;3613853;39;20308;-62
2022/09/22 03:34:00;;;;;;;28.58;25.65;;;;;;;8.68;78.18;102117.28;3606247;39;20449;-63
2022/09/22 03:36:26;;;;;;;27.90;25.08;;;;;;;8.67;78.54;102113.72;3613165;39;20419;-63
2022/09/22 03:38:51;;;;;;;27.80;25.08;;;;;;;8.67;78.29;102107.50;3608696;39;20058;-63
2022/09/22 03:41:18;;;;;;;28.38;25.38;;;;;;;8.64;77.96;102103.09;3613460;39;20062;-63
2022/09/22 03:43:43;;;;;;;28.23;25.30;;;;;;;8.65;77.78;102103.97;3612603;39;20058;-63
2022/09/22 03:46:09;;;;;;;28.38;24.90;;;;;;;8.63;77.74;102105.81;3612866;39;20056;-63
2022/09/22 03:48:35;;;;;;;27.77;24.98;;;;;;;8.63;78.30;102105.81;3604367;39;20044;-63
2022/09/22 03:51:00;;;;;;;27.00;24.10;;;;;;;8.62;78.05;102106.75;3605356;39;20391;-63
2022/09/22 03:53:26;;;;;;;27.42;24.20;;;;;;;8.60;77.53;102106.81;3611577;39;20059;-63
2022/09/22 03:56:03;;;;;;;26.67;23.90;;;;;;;8.48;76.77;102089.34;3606143;39;20075;-63
2022/09/22 03:58:28;;;;;;;27.45;24.73;;;;;;;8.55;76.98;102104.28;3606674;39;20058;-64
2022/09/22 04:00:54;;;;;;;26.98;24.05;;;;;;;8.55;77.89;102103.41;3601591;39;20061;-63
2022/09/22 04:03:19;;;;;;;27.25;24.33;;;;;;;8.52;77.68;102104.38;3611700;39;20050;-63
2022/09/22 04:05:50;;;;;;;27.15;24.17;;;;;;;8.51;77.11;102097.28;3605191;39;20466;-63
2022/09/22 04:08:16;;;;;;;25.40;22.90;;;;;;;8.51;77.38;102096.41;3613765;39;20065;-63
2022/09/22 04:10:44;;;;;;;26.92;24.33;;;;;;;8.48;76.88;102094.69;3605580;39;20059;-63
2022/09/22 04:13:11;;;;;;;26.45;23.73;;;;;;;8.46;77.25;102099.22;3612317;39;20047;-63
2022/09/22 04:15:37;;;;;;;27.52;24.58;;;;;;;8.44;76.93;102089.50;3608118;39;20143;-63
2022/09/22 04:18:03;;;;;;;26.67;24.00;;;;;;;8.43;77.43;102088.59;3613470;39;20377;-63
2022/09/22 04:20:29;;;;;;;26.77;24.15;;;;;;;8.41;77.35;102089.59;3613295;39;20054;-64
2022/09/22 04:22:55;;;;;;;26.58;23.77;;;;;;;8.39;77.23;102081.59;3608721;39;20393;-63
2022/09/22 04:25:21;;;;;;;26.15;23.45;;;;;;;8.37;77.35;102088.75;3613039;39;20371;-63
2022/09/22 04:27:48;;;;;;;26.90;24.10;;;;;;;8.35;77.81;102088.84;3610103;39;20051;-62
2022/09/22 04:30:14;;;;;;;26.20;23.52;;;;;;;8.32;77.65;102088.94;3606393;39;20049;-63
2022/09/22 04:32:39;;;;;;;26.73;24.08;;;;;;;8.24;77.34;102072.22;3612565;39;20049;-63
2022/09/22 04:35:06;;;;;;;25.38;22.77;;;;;;;8.30;78.22;102088.09;3612675;39;20059;-62
2022/09/22 04:37:32;;;;;;;25.42;22.75;;;;;;;8.18;77.48;102066.19;3608587;39;20047;-62
2022/09/22 04:39:58;;;;;;;24.98;22.38;;;;;;;8.20;77.51;102075.06;3609952;39;20124;-63
2022/09/22 04:42:25;;;;;;;25.38;22.88;;;;;;;8.25;76.77;102082.03;3613094;39;20518;-64
2022/09/22 04:44:51;;;;;;;25.98;23.10;;;;;;;8.28;77.13;102089.09;3611629;39;20182;-63
2022/09/22 04:47:17;;;;;;;25.17;22.52;;;;;;;8.03;77.54;102047.00;3610354;39;20420;-64
2022/09/22 04:49:42;;;;;;;26.83;23.77;;;;;;;8.11;78.21;102060.13;3609705;39;20058;-63
2022/09/22 04:52:08;;;;;;;26.40;23.70;;;;;;;8.20;78.54;102086.63;3610743;39;20057;-64
2022/09/22 04:54:34;;;;;;;25.73;23.13;;;;;;;8.19;78.63;102078.66;3612325;39;20053;-63
2022/09/22 04:57:01;;;;;;;26.63;23.80;;;;;;;8.19;77.43;102084.88;3613704;39;20274;-63
2022/09/22 04:59:28;;;;;;;24.75;22.23;;;;;;;8.19;77.50;102082.22;3611171;39;20047;-64
2022/09/22 05:01:54;;;;;;;25.45;22.70;;;;;;;8.06;78.14;102062.97;3614291;39;20047;-63
2022/09/22 05:04:20;;;;;;;26.80;24.23;;;;;;;8.11;77.98;102076.22;3608225;39;20277;-63
2022/09/22 05:06:46;;;;;;;26.10;23.50;;;;;;;8.13;78.52;102085.09;3612468;39;20066;-63
2022/09/22 05:09:11;;;;;;;24.67;22.08;;;;;;;8.11;78.88;102086.91;3611162;39;20074;-64
2022/09/22 05:11:37;;;;;;;25.85;23.20;;;;;;;8.13;78.52;102085.09;3613250;39;20415;-65
2022/09/22 05:14:03;;;;;;;25.00;22.30;;;;;;;8.12;78.23;102080.66;3614947;39;20057;-63
2022/09/22 05:16:30;;;;;;;25.02;22.42;;;;;;;8.13;78.00;102090.44;3611014;39;20293;-63
2022/09/22 05:18:57;;;;;;;24.77;21.95;;;;;;;7.98;77.82;102065.00;3610329;39;20089;-63
2022/09/22 05:21:22;;;;;;;24.55;21.95;;;;;;;8.13;77.70;102088.63;3614844;39;20309;-63
2022/09/22 05:23:48;;;;;;;23.30;21.00;;;;;;;8.13;77.25;102085.97;3612483;39;20055;-64
2022/09/22 05:26:14;;;;;;;24.17;21.58;;;;;;;7.98;77.20;102062.31;3613412;39;20074;-63
2022/09/22 05:28:39;;;;;;;24.90;22.25;;;;;;;8.13;77.58;102085.97;3613456;39;20378;-65
2022/09/22 05:31:05;;;;;;;25.52;22.23;;;;;;;8.12;78.17;102086.88;3612920;39;20119;-63
2022/09/22 05:33:30;;;;;;;25.63;22.73;;;;;;;8.13;78.91;102091.31;3617297;39;20057;-64
2022/09/22 05:35:56;;;;;;;25.83;23.15;;;;;;;8.14;78.18;102093.06;3620110;39;20062;-63
2022/09/22 05:38:22;;;;;;;24.95;22.25;;;;;;;8.16;78.58;102092.16;3618308;39;20049;-63
2022/09/22 05:40:47;;;;;;;25.85;22.63;;;;;;;8.12;78.45;102092.25;3615106;39;20053;-63
2022/09/22 05:43:13;;;;;;;27.20;22.85;;;;;;;8.15;78.39;102093.97;3613988;39;20062;-64
2022/09/22 05:45:39;;;;;;;25.92;23.17;;;;;;;8.18;79.00;102095.63;3614628;39;20443;-64
2022/09/22 05:48:05;;;;;;;25.08;22.42;;;;;;;8.19;79.14;102095.59;3618066;39;20046;-64
2022/09/22 05:50:31;;;;;;;27.52;22.55;;;;;;;8.20;79.04;102097.34;3610259;39;20051;-64
2022/09/22 05:53:11;;;;;;;25.05;21.17;;;;;;;8.22;78.71;102100.88;3614771;39;20144;-64
2022/09/22 05:55:39;;;;;;;26.50;22.08;;;;;;;8.26;77.89;102097.16;3615419;39;20047;-65
2022/09/22 05:58:08;;;;;;;24.02;20.98;;;;;;;8.28;78.16;102100.69;3611337;39;20067;-64
2022/09/22 06:00:33;;;;;;;23.55;21.13;;;;;;;8.32;78.37;102093.41;3612411;39;20063;-64
2022/09/22 06:02:59;;;;;;;21.65;19.55;;;;;;;8.31;77.91;102100.59;3616225;39;20059;-64
2022/09/22 06:05:25;;;;;;;22.23;19.92;;;;;;;8.10;78.18;102059.28;3614092;39;20050;-64
2022/09/22 06:08:02;;;;;;;23.58;20.98;;;;;;;8.40;78.30;102099.41;3609670;39;20079;-63
2022/09/22 06:10:30;;;;;;;23.65;21.13;;;;;;;8.45;78.96;102102.84;3616802;39;20392;-63
2022/09/22 06:13:06;;;;;;;24.02;21.42;;;;;;;8.51;78.98;102107.13;3615221;39;20055;-62
2022/09/22 06:15:34;;;;;;;24.95;22.05;;;;;;;8.56;79.53;102106.06;3614035;39;20127;-62
2022/09/22 06:18:08;;;;;;;24.17;21.55;;;;;;;8.59;79.76;102108.63;3613834;39;20055;-63
2022/09/22 06:20:34;;;;;;;;;;;;;;;8.64;79.75;102107.59;3613914;39;20123;-64
2022/09/22 06:23:00;;;;;;;24.83;21.15;;;;;;;8.68;80.24;102104.75;3612834;39;20246;-63
2022/09/22 06:25:29;;;;;;;27.92;22.88;;;;;;;8.71;80.65;102096.59;3608019;39;20125;-63
2022/09/22 06:28:04;;;;;;;25.40;22.55;;;;;;;8.80;80.37;102095.44;3612862;39;20090;-63
2022/09/22 06:30:32;;;;;;;23.48;20.98;;;;;;;8.90;80.31;102099.53;3613804;39;20122;-62
2022/09/22 06:32:58;;;;;;;24.90;21.77;;;;;;;8.98;80.60;102100.16;3608572;39;20056;-63
2022/09/22 06:35:24;;;;;;;25.55;21.45;;;;;;;9.07;80.43;102096.28;3611597;39;20047;-63
2022/09/22 06:37:57;;;;;;;26.40;21.33;;;;;;;9.18;80.41;102101.28;3609106;39;20066;-63
2022/09/22 06:40:25;;;;;;;25.02;21.98;;;;;;;9.26;80.12;102102.75;3606934;39;20058;-64
2022/09/22 06:43:10;;;;;;;22.65;20.30;;;;;;;9.35;79.85;102098.84;3605578;39;20430;-63
2022/09/22 06:45:37;;;;;;;22.45;19.88;;;;;;;9.45;80.00;102094.00;3613125;39;20346;-63
2022/09/22 06:48:03;;;;;;;23.33;19.83;;;;;;;9.54;80.18;102107.09;3608365;39;20054;-63
2022/09/22 06:50:31;;;;;;;21.45;19.20;;;;;;;9.59;79.61;102102.44;3608445;39;20444;-63
2022/09/22 06:53:01;;;;;;;23.73;19.98;;;;;;;9.69;78.99;102100.28;3612748;39;20067;-64
2022/09/22 06:55:29;;;;;;;22.38;19.95;;;;;;;9.77;79.32;102109.81;3613548;39;20094;-63
2022/09/22 06:58:00;;;;;;;22.55;18.73;;;;;;;9.75;78.62;102078.56;3610309;39;20136;-63
2022/09/22 07:00:31;;;;;;;22.73;19.10;;;;;;;9.92;78.03;102097.59;3614813;39;20055;-63
2022/09/22 07:03:19;;;;;;;23.95;19.08;;;;;;;10.03;78.73;102093.63;3613565;39;20058;-64
2022/09/22 07:05:57;;;;;;;22.75;19.40;;;;;;;10.18;78.66;102093.91;3609204;39;20099;-63
2022/09/22 07:08:24;;;;;;;23.77;19.38;;;;;;;10.33;77.99;102091.56;3613231;39;20396;-64
2022/09/22 07:11:03;;;;;;;23.08;18.50;;;;;;;10.44;77.69;102083.94;3612149;39;20067;-63
2022/09/22 07:13:31;;;;;;;21.10;18.83;;;;;;;10.73;77.92;102088.09;3610440;39;20123;-63
2022/09/22 07:16:03;;;;;;;25.63;18.90;;;;;;;10.97;77.59;102088.84;3613022;39;20056;-63
2022/09/22 07:18:30;;;;;;;27.73;22.27;;;;;;;11.21;76.86;102091.41;3613453;39;20054;-63
2022/09/22 07:21:08;;;;;;;24.80;21.35;;;;;;;11.46;75.11;102091.22;3613051;39;20059;-62
2022/09/22 07:23:35;;;;;;;22.58;17.63;;;;;;;11.68;74.37;102077.63;3607987;39;20056;-63
2022/09/22 07:26:37;;;;;;;21.05;15.57;;;;;;;11.98;73.63;102083.41;3615030;39;20054;-62
2022/09/22 07:29:07;;;;;;;20.20;14.23;;;;;;;12.30;73.41;102079.16;3616485;39;20120;-63
2022/09/22 07:31:35;;;;;;;17.25;13.18;;;;;;;12.59;71.59;102080.44;3612462;39;20049;-63
2022/09/22 07:34:01;;;;;;;18.02;11.70;;;;;;;12.85;69.54;102089.91;3610744;39;20366;-64
2022/09/22 07:36:30;;;;;;;17.25;13.07;;;;;;;13.13;69.48;102083.94;3613633;39;20043;-63
2022/09/22 07:39:03;;;;;;;15.48;12.57;;;;;;;13.31;69.23;102067.75;3612618;39;20379;-63
2022/09/22 07:41:31;;;;;;;15.15;11.30;;;;;;;13.63;68.55;102087.63;3609041;39;20091;-63
2022/09/22 07:46:48;;;;;;;13.18;9.00;;;;;;;14.05;64.56;102081.69;3593735;39;20161;-64
2022/09/22 07:49:16;;;;;;;12.02;9.13;;;;;;;14.28;64.68;102087.63;3610307;39;20050;-63
2022/09/22 07:51:42;;;;;;;11.82;7.78;;;;;;;14.50;63.43;102082.69;3609054;39;20050;-62
2022/09/22 07:54:08;;;;;;;9.15;8.05;;;;;;;14.65;63.09;102085.50;3611212;39;20116;-63
2022/09/22 07:56:40;;;;;;;10.70;7.82;;;;;;;14.92;61.37;102089.28;3604832;39;20048;-63
2022/09/22 07:59:10;;;;;;;8.48;7.00;;;;;;;15.15;60.82;102089.72;3604344;39;20087;-63
2022/09/22 08:01:42;;;;;;;7.25;6.13;;;;;;;15.29;58.30;102087.06;3608090;39;20050;-64
2022/09/22 08:04:11;;;;;;;8.90;6.28;;;;;;;15.43;59.95;102087.06;3604410;39;20036;-64
2022/09/22 08:06:37;;;;;;;8.30;6.45;;;;;;;15.54;57.40;102080.97;3611399;39;20046;-63
2022/09/22 08:09:05;;;;;;;8.05;6.30;;;;;;;15.63;57.48;102090.34;3608787;39;20066;-63
2022/09/22 08:11:31;;;;;;;6.90;6.05;;;;;;;15.74;57.37;102077.03;3612346;39;20120;-62
2022/09/22 08:14:00;;;;;;;6.72;6.03;;;;;;;15.86;56.85;102069.94;3609789;39;20364;-64
2022/09/22 08:16:34;;;;;;;7.90;6.38;;;;;;;16.04;57.48;102079.59;3613486;39;20062;-64
2022/09/22 08:19:11;;;;;;;;;;;;;;;16.25;56.97;102082.75;3609903;39;20123;-64
2022/09/22 08:21:46;;;;;;;7.75;6.63;;;;;;;16.42;56.34;102074.38;3612995;39;20162;-64
2022/09/22 08:24:14;;;;;;;8.40;6.07;;;;;;;16.45;54.57;102074.16;3610576;39;20050;-64
2022/09/22 08:26:43;;;;;;;9.10;6.15;;;;;;;16.57;53.88;102066.19;3610246;39;20039;-63
2022/09/22 08:29:09;;;;;;;7.10;6.32;;;;;;;16.73;54.75;102072.31;3610469;39;20067;-64
2022/09/22 08:31:40;;;;;;;7.70;6.85;;;;;;;16.77;52.87;102059.44;3611949;39;20047;-64
2022/09/22 08:34:07;;;;;;;8.07;6.78;;;;;;;17.06;54.03;102069.19;3612552;39;20050;-64
2022/09/22 08:36:34;;;;;;;8.65;6.88;;;;;;;17.29;52.51;102070.28;3613308;39;20051;-63
2022/09/22 08:39:02;;;;;;;10.18;6.90;;;;;;;17.49;52.13;102065.28;3612721;39;20054;-64
2022/09/22 08:41:28;;;;;;;9.77;7.20;;;;;;;17.70;51.68;102062.88;3608598;39;20147;-63
2022/09/22 08:44:00;;;;;;;10.00;6.57;;;;;;;17.97;52.67;102065.47;3615439;39;20405;-63
2022/09/22 08:46:34;;;;;;;7.43;6.05;;;;;;;18.19;50.85;102064.75;3613916;39;20046;-65
2022/09/22 08:52:30;;;;;;;5.30;4.63;;;;;;;18.58;50.70;102039.06;3612319;39;20054;-64
2022/09/22 08:54:58;;;;;;;9.02;4.97;;;;;;;18.90;48.57;102066.63;3612558;39;20112;-63
2022/09/22 08:57:56;;;;;;;5.03;4.05;;;;;;;18.89;45.20;102066.72;3609260;39;20051;-64
2022/09/22 09:00:26;;;;;;;4.72;3.97;;;;;;;19.02;46.48;102078.41;3610278;39;20107;-64
2022/09/22 09:03:17;;;;;;;4.75;3.80;;;;;;;19.20;46.97;102073.38;3612741;39;20181;-63
2022/09/22 09:06:21;;;;;;;4.43;4.00;;;;;;;19.43;46.27;102079.75;3611666;39;20080;-64
2022/09/22 09:09:17;;;;;;;6.03;4.13;;;;;;;19.67;45.68;102077.81;3611098;39;20051;-64
2022/09/22 09:11:56;;;;;;;6.00;4.10;;;;;;;19.91;44.12;102074.09;3612975;39;20370;-63
2022/09/22 09:15:14;;;;;;;6.10;3.70;;;;;;;20.16;43.75;102082.00;3608071;39;20047;-64
2022/09/22 09:17:46;;;;;;;6.13;3.53;;;;;;;20.35;44.83;102077.75;3609199;39;20051;-64
2022/09/22 09:20:20;;;;;;;6.90;3.78;;;;;;;20.44;42.92;102079.72;3614228;39;20054;-63
2022/09/22 09:22:54;;;;;;;4.20;3.45;;;;;;;20.60;43.19;102082.91;3613351;39;20362;-64
2022/09/22 09:25:40;;;;;;;3.97;3.03;;;;;;;20.78;41.47;102074.16;3608416;39;20374;-63
2022/09/22 09:28:17;;;;;;;5.18;2.85;;;;;;;20.86;41.61;102074.38;3610699;39;20050;-64
2022/09/22 09:30:52;;;;;;;3.83;3.05;;;;;;;21.02;42.38;102071.19;3612042;39;20400;-63
2022/09/22 09:33:56;;;;;;;6.80;3.35;;;;;;;21.17;39.35;102074.47;3608753;39;20055;-63
2022/09/22 09:36:31;;;;;;;5.50;2.85;;;;;;;21.20;41.28;102076.94;3612334;39;20083;-65
2022/09/22 09:39:22;;;;;;;4.85;3.00;;;;;;;21.26;38.81;102074.53;3611496;39;20062;-64
2022/09/22 09:41:49;;;;;;;11.85;5.40;;;;;;;21.39;39.38;102073.47;3608602;39;20572;-65
2022/09/22 09:44:30;;;;;;;3.85;3.15;;;;;;;21.50;39.92;102073.38;3612072;39;20047;-64
2022/09/22 09:47:11;;;;;;;2.88;2.58;;;;;;;21.63;40.01;102075.91;3609500;39;20047;-63
2022/09/22 09:49:37;;;;;;;3.85;3.47;;;;;;;21.58;38.49;102067.25;3610557;39;20055;-63
2022/09/22 09:52:11;;;;;;;3.83;3.20;;;;;;;21.63;39.07;102081.38;3612510;39;20059;-64
2022/09/22 09:54:42;;;;;;;2.67;2.47;;;;;;;21.76;39.85;102071.09;3610477;39;20059;-64
2022/09/22 09:57:12;;;;;;;3.53;2.83;;;;;;;21.94;38.88;102069.41;3611160;39;20055;-64
2022/09/22 10:02:47;;;;;;;3.05;2.65;;;;;;;21.93;40.05;102061.34;3612903;39;20096;-63
2022/09/22 10:05:26;;;;;;;3.40;2.58;;;;;;;22.01;38.04;102054.19;3608995;39;20382;-64
2022/09/22 10:08:01;;;;;;;3.33;3.03;;;;;;;21.92;37.69;102049.53;3609361;39;20110;-63
2022/09/22 10:10:36;;;;;;;3.38;3.08;;;;;;;21.84;38.38;102029.31;3610232;39;20062;-63
2022/09/22 10:13:04;;;;;;;3.70;3.03;;;;;;;22.07;39.02;102046.38;3615998;39;20122;-63
2022/09/22 10:15:37;;;;;;;4.95;3.55;;;;;;;22.21;38.44;102051.50;3611230;39;20115;-64
2022/09/22 10:18:22;;;;;;;3.58;2.70;;;;;;;22.22;38.74;102053.25;3613836;39;20304;-64
2022/09/22 10:21:06;;;;;;;5.75;3.50;;;;;;;22.34;36.91;102043.88;3604950;39;20063;-64
2022/09/22 10:23:32;;;;;;;6.30;2.75;;;;;;;22.55;38.41;102043.78;3604739;39;20282;-64
2022/09/22 10:26:20;;;;;;;4.05;2.55;;;;;;;22.74;36.70;102039.28;3609457;39;20087;-63
2022/09/22 10:29:14;;;;;;;5.35;2.25;;;;;;;22.90;36.88;102043.19;3602723;39;20047;-64
2022/09/22 10:31:47;;;;;;;2.50;2.30;;;;;;;22.98;35.05;102036.13;3608479;39;20293;-64
2022/09/22 10:34:36;;;;;;;7.00;2.50;;;;;;;23.01;35.70;102041.31;3611289;39;20051;-63
2022/09/22 10:37:09;;;;;;;3.83;2.17;;;;;;;23.11;36.81;102032.06;3612196;39;20067;-64
2022/09/22 10:39:48;;;;;;;;;;;;;;;23.26;35.40;102029.72;3606772;39;20051;-64
2022/09/22 10:42:22;;;;;;;2.20;2.00;;;;;;;23.35;36.06;102034.31;3604787;39;19932;-64
2022/09/22 10:44:50;;;;;;;;;;;;;;;23.43;37.41;102019.84;3610932;39;20059;-65
2022/09/22 10:47:31;;;;;;;3.83;2.10;;;;;;;23.64;33.28;102017.75;3611004;39;20262;-63
2022/09/22 10:50:27;;;;;;;2.67;2.38;;;;;;;23.66;33.43;102030.44;3611113;39;20122;-64
2022/09/22 10:53:38;;;;;;;4.05;2.42;;;;;;;23.61;34.71;102022.69;3613045;39;20051;-65
2022/09/22 10:56:18;;;;;;;3.55;2.47;;;;;;;23.65;33.83;102013.09;3606659;39;20054;-64
2022/09/22 10:59:14;;;;;;;5.35;2.53;;;;;;;23.79;36.32;102020.88;3606174;39;20051;-63
2022/09/22 11:01:50;;;;;;;4.80;2.47;;;;;;;23.88;33.65;102018.22;3611220;39;20043;-63
2022/09/22 11:04:33;;;;;;;3.15;1.90;;;;;;;24.02;32.36;102014.97;3614535;39;20102;-64
2022/09/22 11:14:24;;;;;;;2.08;1.80;;;;;;;24.53;31.61;102008.00;3611592;39;20062;-64
2022/09/22 11:17:21;;;;;;;2.45;1.80;;;;;;;24.72;32.43;102010.56;3612032;39;20465;-64
2022/09/22 11:20:38;;;;;;;1.83;1.67;;;;;;;25.03;32.05;102004.63;3612249;39;20094;-63
2022/09/22 11:23:55;;;;;;;4.03;1.73;;;;;;;25.07;32.08;102006.03;3609464;39;20047;-63
2022/09/22 11:26:46;;;;;;;2.20;1.60;;;;;;;25.14;30.86;102000.75;3604788;39;20058;-64
2022/09/22 11:29:36;;;;;;;3.35;1.50;;;;;;;25.13;30.48;101999.91;3610214;39;20046;-65
2022/09/22 11:32:37;;;;;;;2.25;1.45;;;;;;;25.35;31.43;102000.38;3609360;39;20054;-63
2022/09/22 11:35:21;;;;;;;1.65;1.30;;;;;;;25.38;31.37;101981.66;3612092;39;20054;-64
2022/09/22 11:38:33;;;;;;;1.83;1.33;;;;;;;25.42;28.94;101998.69;3606904;39;20306;-63
2022/09/22 11:41:28;;;;;;;3.15;1.27;;;;;;;25.36;30.08;101983.69;3576255;40;20066;-63
2022/09/22 11:44:33;;;;;;;5.10;1.50;;;;;;;25.21;30.77;101986.22;3609072;39;20050;-63
2022/09/22 11:47:28;;;;;;;2.75;1.42;;;;;;;24.52;31.16;101987.88;3604654;39;20386;-63
2022/09/22 11:50:12;;;;;;;3.25;1.50;;;;;;;24.20;31.29;101977.41;3610218;39;20047;-63
2022/09/22 11:52:53;;;;;;;3.35;1.30;;;;;;;24.48;31.76;101972.69;3611011;39;20046;-64
2022/09/22 11:56:00;;;;;;;4.47;1.30;;;;;;;24.70;29.17;101971.34;3611832;39;20050;-63
2022/09/22 11:58:32;;;;;;;3.13;1.60;;;;;;;24.96;29.10;101956.75;3605973;39;20169;-64
2022/09/22 12:01:10;;;;;;;2.05;1.20;;;;;;;25.24;29.69;101958.34;3613788;39;20386;-63
2022/09/22 12:04:03;;;;;;;2.60;0.90;;;;;;;25.51;28.54;101961.94;3610053;39;20043;-63
2022/09/22 12:06:40;;;;;;;2.95;1.20;;;;;;;25.76;28.32;101951.88;3612114;39;20047;-63
2022/09/22 12:09:39;;;;;;;6.43;3.13;;;;;;;26.05;28.82;101951.47;3611579;39;20046;-64
2022/09/22 12:12:15;;;;;;;3.95;2.90;;;;;;;26.17;28.50;101941.84;3609282;39;20055;-65